createdAt,value
2023-05-09T00:01:17.968Z,100.00
2023-05-09T00:03:44.547Z,100.00
2023-05-09T00:06:11.607Z,100.00
2023-05-09T00:08:38.026Z,100.00
2023-05-09T00:11:04.582Z,100.00
2023-05-09T00:13:30.947Z,100.00
2023-05-09T00:15:58.493Z,100.00
2023-05-09T00:18:24.941Z,100.00
2023-05-09T00:20:51.304Z,100.00
2023-05-09T00:23:17.868Z,100.00
2023-05-09T00:25:44.403Z,100.00
2023-05-09T00:28:10.849Z,100.00
2023-05-09T00:30:37.218Z,100.00
2023-05-09T00:33:03.847Z,100.00
2023-05-09T00:35:32.246Z,100.00
2023-05-09T00:37:59.379Z,100.00
2023-05-09T00:40:26.113Z,100.00
2023-05-09T00:42:52.488Z,100.00
2023-05-09T00:45:18.874Z,100.00
2023-05-09T00:47:45.536Z,100.00
2023-05-09T00:50:12.034Z,100.00
2023-05-09T00:52:38.396Z,100.00
2023-05-09T00:55:05.605Z,100.00
2023-05-09T00:57:31.942Z,100.00
2023-05-09T00:59:58.480Z,100.00
2023-05-09T01:02:25.106Z,100.00
2023-05-09T01:04:51.478Z,100.00
2023-05-09T01:07:42.780Z,100.00
2023-05-09T01:10:31.025Z,100.00
2023-05-09T01:13:06.734Z,100.00
2023-05-09T01:15:54.013Z,100.00
2023-05-09T01:18:47.476Z,100.00
2023-05-09T01:21:21.993Z,100.00
2023-05-09T01:23:57.614Z,100.00
2023-05-09T01:26:42.237Z,100.00
2023-05-09T01:29:11.643Z,100.00
2023-05-09T01:31:38.730Z,100.00
2023-05-09T01:34:05.250Z,100.00
2023-05-09T01:36:33.138Z,100.00
2023-05-09T01:38:59.652Z,100.00
2023-05-09T01:41:26.796Z,100.00
2023-05-09T01:43:53.226Z,100.00
2023-05-09T01:46:19.629Z,100.00
2023-05-09T01:48:46.052Z,100.00
2023-05-09T01:51:13.252Z,100.00
2023-05-09T01:53:39.820Z,100.00
2023-05-09T01:56:06.830Z,100.00
2023-05-09T01:58:33.726Z,100.00
2023-05-09T02:01:00.471Z,100.00
2023-05-09T02:03:27.186Z,100.00
2023-05-09T02:05:54.050Z,100.00
2023-05-09T02:08:21.223Z,100.00
2023-05-09T02:10:49.003Z,100.00
2023-05-09T02:13:15.800Z,100.00
2023-05-09T02:15:42.299Z,100.00
2023-05-09T02:18:08.667Z,100.00
2023-05-09T02:20:36.133Z,100.00
2023-05-09T02:23:02.511Z,100.00
2023-05-09T02:25:28.863Z,100.00
2023-05-09T02:27:55.594Z,100.00
2023-05-09T02:30:25.052Z,100.00
2023-05-09T02:33:07.262Z,100.00
2023-05-09T02:35:33.608Z,100.00
2023-05-09T02:38:00.258Z,100.00
2023-05-09T02:40:27.416Z,100.00
2023-05-09T02:42:53.785Z,100.00
2023-05-09T02:45:20.170Z,100.00
2023-05-09T02:47:46.578Z,100.00
2023-05-09T02:50:13.044Z,100.00
2023-05-09T02:52:39.463Z,100.00
2023-05-09T02:55:07.390Z,100.00
2023-05-09T02:57:33.911Z,100.00
2023-05-09T03:00:00.272Z,100.00
2023-05-09T03:02:26.876Z,100.00
2023-05-09T03:04:53.298Z,100.00
2023-05-09T03:07:19.647Z,100.00
2023-05-09T03:09:46.038Z,100.00
2023-05-09T03:12:12.374Z,100.00
2023-05-09T03:14:38.799Z,100.00
2023-05-09T03:17:05.170Z,100.00
2023-05-09T03:19:32.366Z,100.00
2023-05-09T03:21:58.722Z,100.00
2023-05-09T03:24:26.507Z,100.00
2023-05-09T03:26:52.854Z,100.00
2023-05-09T03:29:19.210Z,100.00
2023-05-09T03:31:46.419Z,100.00
2023-05-09T03:34:15.115Z,100.00
2023-05-09T03:36:43.566Z,100.00
2023-05-09T03:39:10.691Z,100.00
2023-05-09T03:41:37.217Z,100.00
2023-05-09T03:44:05.379Z,100.00
2023-05-09T03:46:31.828Z,100.00
2023-05-09T03:48:58.268Z,100.00
2023-05-09T03:51:24.933Z,100.00
2023-05-09T03:53:51.476Z,100.00
2023-05-09T03:56:17.807Z,100.00
2023-05-09T03:58:44.161Z,100.00
2023-05-09T04:01:10.918Z,100.00
2023-05-09T04:03:37.761Z,100.00
2023-05-09T04:06:04.875Z,100.00
2023-05-09T04:08:32.384Z,100.00
2023-05-09T04:10:58.741Z,100.00
2023-05-09T04:13:25.404Z,100.00
2023-05-09T04:15:51.994Z,100.00
2023-05-09T04:18:18.390Z,100.00
2023-05-09T04:20:44.833Z,100.00
2023-05-09T04:23:11.419Z,100.00
2023-05-09T04:25:37.750Z,100.00
2023-05-09T04:28:04.349Z,100.00
2023-05-09T04:30:30.790Z,100.00
2023-05-09T04:33:00.074Z,100.00
2023-05-09T04:35:27.087Z,100.00
2023-05-09T04:37:53.661Z,100.00
2023-05-09T04:40:20.033Z,100.00
2023-05-09T04:42:46.471Z,100.00
2023-05-09T04:45:13.217Z,100.00
2023-05-09T04:47:40.124Z,100.00
2023-05-09T04:50:07.920Z,100.00
2023-05-09T04:52:34.289Z,100.00
2023-05-09T04:55:00.982Z,100.00
2023-05-09T04:57:27.417Z,100.00
2023-05-09T04:59:53.787Z,100.00
2023-05-09T05:02:21.214Z,100.00
2023-05-09T05:04:47.782Z,100.00
2023-05-09T05:07:14.348Z,100.00
2023-05-09T05:09:40.846Z,100.00
2023-05-09T05:12:09.821Z,100.00
2023-05-09T05:14:36.464Z,100.00
2023-05-09T05:17:02.853Z,100.00
2023-05-09T05:19:29.222Z,100.00
2023-05-09T05:21:55.831Z,100.00
2023-05-09T05:24:22.173Z,100.00
2023-05-09T05:26:48.514Z,100.00
2023-05-09T05:29:15.107Z,100.00
2023-05-09T05:31:41.479Z,100.00
2023-05-09T05:34:07.827Z,100.00
2023-05-09T05:36:34.365Z,100.00
2023-05-09T05:39:00.743Z,100.00
2023-05-09T05:41:27.109Z,100.00
2023-05-09T05:43:54.526Z,100.00
2023-05-09T05:46:21.085Z,100.00
2023-05-09T05:48:47.520Z,100.00
2023-05-09T05:51:13.911Z,100.00
2023-05-09T05:53:40.842Z,100.00
2023-05-09T05:56:07.409Z,100.00
2023-05-09T05:58:33.970Z,100.00
2023-05-09T06:01:00.762Z,100.00
2023-05-09T06:03:27.299Z,100.00
2023-05-09T06:05:53.807Z,100.00
2023-05-09T06:08:20.170Z,100.00
2023-05-09T06:10:46.682Z,100.00
2023-05-09T06:13:13.139Z,100.00
2023-05-09T06:15:39.529Z,100.00
2023-05-09T06:18:05.939Z,100.00
2023-05-09T06:20:32.639Z,100.00
2023-05-09T06:22:59.023Z,100.00
2023-05-09T06:25:25.365Z,100.00
2023-05-09T06:27:51.753Z,100.00
2023-05-09T06:30:26.148Z,100.00
2023-05-09T06:32:54.688Z,100.00
2023-05-09T06:35:21.303Z,100.00
2023-05-09T06:37:48.796Z,100.00
2023-05-09T06:40:16.047Z,100.00
2023-05-09T06:42:42.419Z,100.00
2023-05-09T06:45:09.118Z,100.00
2023-05-09T06:47:35.801Z,100.00
2023-05-09T06:50:02.250Z,100.00
2023-05-09T06:52:28.749Z,100.00
2023-05-09T06:54:55.450Z,100.00
2023-05-09T06:57:21.780Z,100.00
2023-05-09T06:59:48.095Z,100.00
2023-05-09T07:02:14.670Z,100.00
2023-05-09T07:04:41.056Z,100.00
2023-05-09T07:07:10.357Z,100.00
2023-05-09T07:09:36.713Z,100.00
2023-05-09T07:12:03.503Z,100.00
2023-05-09T07:14:29.885Z,100.00
2023-05-09T07:17:05.092Z,100.00
2023-05-09T07:19:41.211Z,100.00
2023-05-09T07:22:07.872Z,100.00
2023-05-09T07:24:34.264Z,100.00
2023-05-09T07:27:03.455Z,100.00
2023-05-09T07:29:29.834Z,100.00
2023-05-09T07:31:56.257Z,100.00
2023-05-09T07:34:23.812Z,100.00
2023-05-09T07:36:50.470Z,100.00
2023-05-09T07:39:16.805Z,100.00
2023-05-09T07:41:43.164Z,100.00
2023-05-09T07:44:09.766Z,100.00
2023-05-09T07:46:38.410Z,100.00
2023-05-09T07:49:04.765Z,100.00
2023-05-09T07:51:32.266Z,100.00
2023-05-09T07:53:58.607Z,100.00
2023-05-09T07:56:24.949Z,100.00
2023-05-09T07:58:52.600Z,100.00
2023-05-09T08:01:20.010Z,100.00
2023-05-09T08:03:46.390Z,100.00
2023-05-09T08:06:13.003Z,100.00
2023-05-09T08:08:39.343Z,100.00
2023-05-09T08:11:06.103Z,100.00
2023-05-09T08:13:32.489Z,100.00
2023-05-09T08:15:59.245Z,100.00
2023-05-09T08:18:26.462Z,100.00
2023-05-09T08:20:52.874Z,100.00
2023-05-09T08:23:19.228Z,100.00
2023-05-09T08:25:45.721Z,100.00
2023-05-09T08:28:12.365Z,100.00
2023-05-09T08:30:39.291Z,100.00
2023-05-09T08:33:05.921Z,100.00
2023-05-09T08:35:32.316Z,100.00
2023-05-09T08:37:58.972Z,100.00
2023-05-09T08:40:25.379Z,100.00
2023-05-09T08:42:52.006Z,100.00
2023-05-09T08:45:18.592Z,100.00
2023-05-09T08:47:44.940Z,100.00
2023-05-09T08:50:15.174Z,100.00
2023-05-09T08:52:41.955Z,100.00
2023-05-09T08:55:08.360Z,100.00
2023-05-09T08:57:37.788Z,100.00
2023-05-09T09:00:10.912Z,100.00
2023-05-09T09:02:37.363Z,100.00
2023-05-09T09:05:05.209Z,100.00
2023-05-09T09:07:32.164Z,100.00
2023-05-09T09:09:58.524Z,100.00
2023-05-09T09:12:25.083Z,100.00
2023-05-09T09:14:53.242Z,100.00
2023-05-09T09:17:21.108Z,100.00
2023-05-09T09:19:49.750Z,100.00
2023-05-09T09:22:17.426Z,100.00
2023-05-09T09:24:43.768Z,100.00
2023-05-09T09:27:10.166Z,100.00
2023-05-09T09:29:38.526Z,100.00
2023-05-09T09:32:05.841Z,100.00
2023-05-09T09:34:32.384Z,100.00
2023-05-09T09:36:58.984Z,100.00
2023-05-09T09:39:25.368Z,100.00
2023-05-09T09:41:51.942Z,100.00
2023-05-09T09:44:19.448Z,100.00
2023-05-09T09:46:48.905Z,100.00
2023-05-09T09:49:19.098Z,100.00
2023-05-09T09:51:45.822Z,100.00
2023-05-09T09:54:12.616Z,100.00
2023-05-09T09:56:46.877Z,100.00
2023-05-09T09:59:17.604Z,100.00
2023-05-09T10:02:07.397Z,100.00
2023-05-09T10:04:35.933Z,100.00
2023-05-09T10:07:06.407Z,100.00
2023-05-09T10:09:34.038Z,100.00
2023-05-09T10:12:04.684Z,100.00
2023-05-09T10:14:34.834Z,100.00
2023-05-09T10:17:02.512Z,100.00
2023-05-09T10:19:29.694Z,100.00
2023-05-09T10:22:04.131Z,99.02
2023-05-09T10:24:47.634Z,99.87
2023-05-09T10:27:14.249Z,99.03
2023-05-09T10:29:51.704Z,98.63
2023-05-09T10:32:23.421Z,99.88
2023-05-09T10:34:51.730Z,98.19
2023-05-09T10:37:18.130Z,98.28
2023-05-09T10:39:44.670Z,97.51
2023-05-09T10:42:11.031Z,98.85
2023-05-09T10:44:37.540Z,99.66
2023-05-09T10:47:04.242Z,98.67
2023-05-09T10:49:30.702Z,97.23
2023-05-09T10:51:57.166Z,96.43
2023-05-09T10:54:31.946Z,97.28
2023-05-09T10:56:58.368Z,96.92
2023-05-09T10:59:37.706Z,96.33
2023-05-09T11:02:04.914Z,94.95
2023-05-09T11:04:32.414Z,92.70
2023-05-09T11:07:00.133Z,93.76
2023-05-09T11:09:41.172Z,93.58
2023-05-09T11:12:08.864Z,92.31
2023-05-09T11:14:38.065Z,92.37
2023-05-09T11:17:09.001Z,91.89
2023-05-09T11:19:47.955Z,94.73
2023-05-09T11:22:15.706Z,90.23
2023-05-09T11:24:46.802Z,89.56
2023-05-09T11:27:16.871Z,90.64
2023-05-09T11:29:44.987Z,87.82
2023-05-09T11:32:14.359Z,86.92
2023-05-09T11:34:43.496Z,87.25
2023-05-09T11:37:11.113Z,89.52
2023-05-09T11:39:55.769Z,85.02
2023-05-09T11:42:23.581Z,84.29
2023-05-09T11:44:49.985Z,85.32
2023-05-09T11:47:16.799Z,83.44
2023-05-09T11:49:43.817Z,82.36
2023-05-09T11:52:10.245Z,83.27
2023-05-09T11:54:38.919Z,82.27
2023-05-09T11:57:05.873Z,82.73
2023-05-09T11:59:33.708Z,82.81
2023-05-09T12:02:06.510Z,80.79
2023-05-09T12:04:33.259Z,81.64
2023-05-09T12:07:00.339Z,79.65
2023-05-09T12:09:34.044Z,80.71
2023-05-09T12:12:01.104Z,80.19
2023-05-09T12:14:31.778Z,78.72
2023-05-09T12:16:58.427Z,79.27
2023-05-09T12:19:25.570Z,79.86
2023-05-09T12:21:58.963Z,79.22
2023-05-09T12:24:29.184Z,78.69
2023-05-09T12:26:56.236Z,78.33
2023-05-09T12:29:22.721Z,79.21
2023-05-09T12:31:49.189Z,77.79
2023-05-09T12:34:16.289Z,77.68
2023-05-09T12:36:51.741Z,77.89
2023-05-09T12:39:18.499Z,77.33
2023-05-09T12:42:00.526Z,76.74
2023-05-09T12:44:29.900Z,78.26
2023-05-09T12:47:01.114Z,78.19
2023-05-09T12:49:27.754Z,77.98
2023-05-09T12:51:54.975Z,77.59
2023-05-09T12:54:25.788Z,78.14
2023-05-09T12:56:53.170Z,77.29
2023-05-09T12:59:24.085Z,76.72
2023-05-09T13:01:54.501Z,77.02
2023-05-09T13:04:21.366Z,76.59
2023-05-09T13:06:56.088Z,78.03
2023-05-09T13:09:23.022Z,76.03
2023-05-09T13:11:50.718Z,76.27
2023-05-09T13:14:17.831Z,75.47
2023-05-09T13:16:44.454Z,76.69
2023-05-09T13:19:10.854Z,76.36
2023-05-09T13:21:37.525Z,77.10
2023-05-09T13:24:04.351Z,76.10
2023-05-09T13:26:30.840Z,76.39
2023-05-09T13:28:57.412Z,76.38
2023-05-09T13:31:24.039Z,76.09
2023-05-09T13:33:52.010Z,75.08
2023-05-09T13:36:18.742Z,76.23
2023-05-09T13:38:45.732Z,74.57
2023-05-09T13:41:12.889Z,74.71
2023-05-09T13:43:39.545Z,73.17
2023-05-09T13:46:06.124Z,73.51
2023-05-09T13:48:32.578Z,74.25
2023-05-09T13:51:00.490Z,74.17
2023-05-09T13:53:26.838Z,73.84
2023-05-09T13:55:53.187Z,72.49
2023-05-09T13:58:19.767Z,72.39
2023-05-09T14:00:46.250Z,72.78
2023-05-09T14:03:12.590Z,72.37
2023-05-09T14:05:39.118Z,72.55
2023-05-09T14:08:07.930Z,73.43
2023-05-09T14:10:34.371Z,71.92
2023-05-09T14:13:00.984Z,71.79
2023-05-09T14:15:27.494Z,72.68
2023-05-09T14:17:53.900Z,72.51
2023-05-09T14:20:20.510Z,71.88
2023-05-09T14:22:47.040Z,71.81
2023-05-09T14:25:13.385Z,73.56
2023-05-09T14:27:39.769Z,71.82
2023-05-09T14:30:06.745Z,72.73
2023-05-09T14:32:33.112Z,73.36
2023-05-09T14:34:59.713Z,73.98
2023-05-09T14:37:26.099Z,74.06
2023-05-09T14:39:52.477Z,72.92
2023-05-09T14:42:19.811Z,73.58
2023-05-09T14:44:47.197Z,73.28
2023-05-09T14:47:13.614Z,74.16
2023-05-09T14:49:40.049Z,74.37
2023-05-09T14:52:06.414Z,71.68
2023-05-09T14:54:32.895Z,72.59
2023-05-09T14:57:02.062Z,72.17
2023-05-09T14:59:28.532Z,73.72
2023-05-09T15:01:54.861Z,72.63
2023-05-09T15:04:21.483Z,72.67
2023-05-09T15:06:47.818Z,73.42
2023-05-09T15:09:14.699Z,73.15
2023-05-09T15:11:47.909Z,74.91
2023-05-09T15:14:16.300Z,74.83
2023-05-09T15:16:42.829Z,75.17
2023-05-09T15:19:09.284Z,73.91
2023-05-09T15:21:35.920Z,74.16
2023-05-09T15:24:02.527Z,72.14
2023-05-09T15:26:29.164Z,72.68
2023-05-09T15:28:55.525Z,73.25
2023-05-09T15:31:23.251Z,73.53
2023-05-09T15:33:49.649Z,73.62
2023-05-09T15:36:16.483Z,73.19
2023-05-09T15:38:42.907Z,71.59
2023-05-09T15:41:09.310Z,71.80
2023-05-09T15:43:35.685Z,71.88
2023-05-09T15:46:02.437Z,70.85
2023-05-09T15:48:28.820Z,69.84
2023-05-09T15:50:55.749Z,69.53
2023-05-09T15:53:23.119Z,69.15
2023-05-09T15:55:49.870Z,68.47
2023-05-09T15:58:16.474Z,68.63
2023-05-09T16:00:42.885Z,67.98
2023-05-09T16:03:09.408Z,66.97
2023-05-09T16:05:35.895Z,66.76
2023-05-09T16:08:02.286Z,65.47
2023-05-09T16:10:28.630Z,66.12
2023-05-09T16:12:55.116Z,65.96
2023-05-09T16:15:21.656Z,66.74
2023-05-09T16:17:48.004Z,66.27
2023-05-09T16:20:15.142Z,64.20
2023-05-09T16:22:42.092Z,64.76
2023-05-09T16:25:08.567Z,65.30
2023-05-09T16:27:35.048Z,64.27
2023-05-09T16:30:01.666Z,64.19
2023-05-09T16:32:28.179Z,64.02
2023-05-09T16:34:54.609Z,62.44
2023-05-09T16:37:20.960Z,63.75
2023-05-09T16:39:47.390Z,62.46
2023-05-09T16:42:13.796Z,66.20
2023-05-09T16:44:40.143Z,66.05
2023-05-09T16:47:06.956Z,66.76
2023-05-09T16:49:33.569Z,67.34
2023-05-09T16:52:00.003Z,68.54
2023-05-09T16:54:26.444Z,67.74
2023-05-09T16:56:52.866Z,66.93
2023-05-09T16:59:20.117Z,67.76
2023-05-09T17:01:47.529Z,67.97
2023-05-09T17:04:14.239Z,67.82
2023-05-09T17:06:40.716Z,68.25
2023-05-09T17:09:07.553Z,69.38
2023-05-09T17:11:33.962Z,66.71
2023-05-09T17:14:02.172Z,65.78
2023-05-09T17:16:28.592Z,66.89
2023-05-09T17:18:54.995Z,69.36
2023-05-09T17:21:22.892Z,69.22
2023-05-09T17:23:49.417Z,70.34
2023-05-09T17:26:15.861Z,70.83
2023-05-09T17:28:42.206Z,71.04
2023-05-09T17:31:08.675Z,71.12
2023-05-09T17:33:35.093Z,72.11
2023-05-09T17:36:01.548Z,71.08
2023-05-09T17:38:28.242Z,71.27
2023-05-09T17:40:54.663Z,72.69
2023-05-09T17:43:21.756Z,71.41
2023-05-09T17:45:48.215Z,71.43
2023-05-09T17:48:14.670Z,72.08
2023-05-09T17:50:41.017Z,72.70
2023-05-09T17:53:09.341Z,72.55
2023-05-09T17:55:35.872Z,72.21
2023-05-09T17:58:02.209Z,72.61
2023-05-09T18:00:29.196Z,72.24
2023-05-09T18:02:57.819Z,72.40
2023-05-09T18:05:26.094Z,71.89
2023-05-09T18:07:53.225Z,71.98
2023-05-09T18:10:20.458Z,71.15
2023-05-09T18:12:47.356Z,71.82
2023-05-09T18:15:13.931Z,71.69
2023-05-09T18:17:40.432Z,71.98
2023-05-09T18:20:07.673Z,71.37
2023-05-09T18:22:34.109Z,71.26
2023-05-09T18:25:00.676Z,70.78
2023-05-09T18:27:27.456Z,70.95
2023-05-09T18:29:54.110Z,71.64
2023-05-09T18:32:20.710Z,70.49
2023-05-09T18:34:48.364Z,70.61
2023-05-09T18:37:14.720Z,70.70
2023-05-09T18:39:41.089Z,70.90
2023-05-09T18:42:07.464Z,72.17
2023-05-09T18:44:33.861Z,70.51
2023-05-09T18:47:00.455Z,70.72
2023-05-09T18:49:27.033Z,71.68
2023-05-09T18:51:53.428Z,70.83
2023-05-09T18:54:19.997Z,71.83
2023-05-09T18:56:46.642Z,71.17
2023-05-09T18:59:16.079Z,72.26
2023-05-09T19:01:43.938Z,71.66
2023-05-09T19:04:10.420Z,72.48
2023-05-09T19:06:36.785Z,72.38
2023-05-09T19:09:04.460Z,72.42
2023-05-09T19:11:31.036Z,73.52
2023-05-09T19:13:57.434Z,72.08
2023-05-09T19:16:24.866Z,72.35
2023-05-09T19:18:51.392Z,72.95
2023-05-09T19:21:18.785Z,73.37
2023-05-09T19:23:48.971Z,72.43
2023-05-09T19:26:16.604Z,71.58
2023-05-09T19:28:43.172Z,72.24
2023-05-09T19:31:09.705Z,71.79
2023-05-09T19:33:36.150Z,72.45
2023-05-09T19:36:02.585Z,71.08
2023-05-09T19:38:28.977Z,71.23
2023-05-09T19:40:55.538Z,71.63
2023-05-09T19:43:21.924Z,71.62
2023-05-09T19:45:48.309Z,71.64
2023-05-09T19:48:15.593Z,71.37
2023-05-09T19:50:42.820Z,72.18
2023-05-09T19:53:09.246Z,72.93
2023-05-09T19:55:35.764Z,71.95
2023-05-09T19:58:02.193Z,71.94
2023-05-09T20:00:28.608Z,72.88
2023-05-09T20:02:55.185Z,72.83
2023-05-09T20:05:21.663Z,72.34
2023-05-09T20:07:49.063Z,72.78
2023-05-09T20:10:16.249Z,73.29
2023-05-09T20:12:43.472Z,73.23
2023-05-09T20:15:10.398Z,74.02
2023-05-09T20:17:36.871Z,73.12
2023-05-09T20:20:04.219Z,74.07
2023-05-09T20:22:33.658Z,73.80
2023-05-09T20:25:00.108Z,74.32
2023-05-09T20:27:26.687Z,73.72
2023-05-09T20:29:53.156Z,74.97
2023-05-09T20:32:19.663Z,75.14
2023-05-09T20:34:46.225Z,75.26
2023-05-09T20:37:12.883Z,74.64
2023-05-09T20:39:39.581Z,74.75
2023-05-09T20:42:06.624Z,74.56
2023-05-09T20:44:33.473Z,74.88
2023-05-09T20:46:59.939Z,75.31
2023-05-09T20:49:27.202Z,75.37
2023-05-09T20:51:55.185Z,77.19
2023-05-09T20:54:23.828Z,77.18
2023-05-09T20:56:50.572Z,76.34
2023-05-09T20:59:17.264Z,76.25
2023-05-09T21:01:43.923Z,77.16
2023-05-09T21:04:10.310Z,77.77
2023-05-09T21:06:36.741Z,78.55
2023-05-09T21:09:03.859Z,78.85
2023-05-09T21:11:30.269Z,78.28
2023-05-09T21:13:56.692Z,79.31
2023-05-09T21:16:23.138Z,79.43
2023-05-09T21:18:49.693Z,80.22
2023-05-09T21:21:16.067Z,81.53
2023-05-09T21:23:42.421Z,80.31
2023-05-09T21:26:09.065Z,81.62
2023-05-09T21:28:35.572Z,82.35
2023-05-09T21:31:02.055Z,82.19
2023-05-09T21:33:29.125Z,83.06
2023-05-09T21:35:55.563Z,83.06
2023-05-09T21:38:21.953Z,84.42
2023-05-09T21:40:50.119Z,84.92
2023-05-09T21:43:18.004Z,85.55
2023-05-09T21:45:45.319Z,86.27
2023-05-09T21:48:11.912Z,86.84
2023-05-09T21:50:38.357Z,88.43
2023-05-09T21:53:04.856Z,88.01
2023-05-09T21:55:31.267Z,88.57
2023-05-09T21:57:57.659Z,88.84
2023-05-09T22:00:23.986Z,89.50
2023-05-09T22:02:50.688Z,89.54
2023-05-09T22:05:17.093Z,89.97
2023-05-09T22:07:43.447Z,90.74
2023-05-09T22:10:10.365Z,91.67
2023-05-09T22:12:36.716Z,91.98
2023-05-09T22:15:03.244Z,92.31
2023-05-09T22:17:29.918Z,93.27
2023-05-09T22:19:56.407Z,93.25
2023-05-09T22:22:23.028Z,93.91
2023-05-09T22:24:49.886Z,93.99
2023-05-09T22:27:16.288Z,94.29
2023-05-09T22:29:42.629Z,94.73
2023-05-09T22:32:09.154Z,96.27
2023-05-09T22:34:35.563Z,96.77
2023-05-09T22:37:01.923Z,96.69
2023-05-09T22:39:28.505Z,97.45
2023-05-09T22:41:54.873Z,97.94
2023-05-09T22:44:21.763Z,98.50
2023-05-09T22:46:48.300Z,98.69
2023-05-09T22:49:14.657Z,99.08
2023-05-09T22:51:40.996Z,99.13
2023-05-09T22:54:07.545Z,99.51
2023-05-09T22:56:33.881Z,100.00
2023-05-09T22:59:00.536Z,100.00
2023-05-09T23:01:27.394Z,100.00
2023-05-09T23:03:53.739Z,100.00
2023-05-09T23:06:20.284Z,100.00
2023-05-09T23:08:46.827Z,100.00
2023-05-09T23:11:13.170Z,100.00
2023-05-09T23:13:39.544Z,100.00
2023-05-09T23:16:06.614Z,100.00
2023-05-09T23:18:32.977Z,100.00
2023-05-09T23:20:59.330Z,100.00
2023-05-09T23:23:25.802Z,100.00
2023-05-09T23:25:52.201Z,100.00
2023-05-09T23:28:20.299Z,100.00
2023-05-09T23:30:46.956Z,100.00
2023-05-09T23:33:13.417Z,100.00
2023-05-09T23:35:39.794Z,100.00
2023-05-09T23:38:06.396Z,100.00
2023-05-09T23:40:32.775Z,100.00
2023-05-09T23:42:59.198Z,100.00
2023-05-09T23:45:26.056Z,100.00
2023-05-09T23:47:52.570Z,100.00
2023-05-09T23:50:19.226Z,100.00
2023-05-09T23:52:49.369Z,100.00
2023-05-09T23:55:15.727Z,100.00
2023-05-09T23:57:42.194Z,100.00
